Time;durP1;ratioP1;P1;durP2;ratioP2;P2;SDS_P1;SDS_P2;PMS_P1;PMS_P2;Temp;Humidity;BMP_temperature;BMP_pressure;BME280_temperature;BME280_humidity;BME280_pressure;Samples;Min_cycle;Max_cycle;Signal;HPM_P1;HPM_P2
2021/09/13 00:02:16;;;;;;;12.30;2.78;;;;;;;17.98;63.55;98657.56;5072210;28;20028;-49
2021/09/13 00:04:42;;;;;;;6.25;2.50;;;;;;;18.42;62.63;98655.59;5072332;28;20385;-50
2021/09/13 00:07:08;;;;;;;6.82;2.15;;;;;;;18.55;61.17;98641.91;5072236;28;20505;-49
2021/09/13 00:09:33;;;;;;;3.80;2.03;;;;;;;18.15;61.58;98645.00;5072198;28;20107;-50
2021/09/13 00:11:59;;;;;;;8.98;2.63;;;;;;;17.70;62.55;98638.91;5072127;28;20497;-49
2021/09/13 00:14:28;;;;;;;4.75;2.97;;;;;;;17.69;63.07;98642.63;5072142;28;20550;-50
2021/09/13 00:16:53;;;;;;;3.22;2.47;;;;;;;17.78;62.84;98630.50;5053863;28;20048;-49
2021/09/13 00:19:19;;;;;;;5.03;3.03;;;;;;;17.60;63.03;98640.63;5072115;28;20055;-49
2021/09/13 00:21:44;;;;;;;7.80;2.97;;;;;;;17.48;63.64;98638.91;5071968;28;20043;-49
2021/09/13 00:24:10;;;;;;;4.65;2.45;;;;;;;17.36;63.84;98646.16;5071967;28;20040;-50
2021/09/13 00:26:36;;;;;;;5.63;2.60;;;;;;;17.12;64.50;98642.94;5053982;28;20021;-49
2021/09/13 00:29:02;;;;;;;6.78;3.03;;;;;;;16.91;65.33;98637.34;5071985;28;20107;-49
2021/09/13 00:31:28;;;;;;;6.05;2.90;;;;;;;16.69;66.16;98639.09;5071924;28;20027;-49
2021/09/13 00:33:55;;;;;;;4.95;2.58;;;;;;;16.52;66.39;98644.38;5054387;28;20416;-49
2021/09/13 00:36:21;;;;;;;6.97;6.18;;;;;;;16.37;66.96;98642.28;5071799;28;20012;-52
2021/09/13 00:38:46;;;;;;;5.78;2.83;;;;;;;16.30;67.43;98647.72;5071863;28;20107;-52
2021/09/13 00:41:12;;;;;;;3.30;2.63;;;;;;;16.22;67.68;98647.28;5071696;28;20021;-52
2021/09/13 00:43:38;;;;;;;4.80;2.72;;;;;;;16.12;67.99;98643.44;5053763;28;20029;-52
2021/09/13 00:46:04;;;;;;;5.05;2.63;;;;;;;16.11;68.05;98643.66;5071744;28;20020;-52
2021/09/13 00:48:30;;;;;;;7.78;3.90;;;;;;;16.09;68.20;98646.56;5071964;28;20402;-51
2021/09/13 00:50:56;;;;;;;4.70;2.88;;;;;;;16.08;68.64;98644.16;5071692;28;20021;-52
2021/09/13 00:53:23;;;;;;;3.92;2.50;;;;;;;16.14;68.02;98643.22;5070363;28;20021;-52
2021/09/13 00:55:49;;;;;;;9.55;3.20;;;;;;;16.16;68.16;98647.22;5053638;28;20020;-52
2021/09/13 00:58:14;;;;;;;7.35;2.95;;;;;;;16.18;68.15;98650.44;5053636;28;20021;-52
2021/09/13 01:00:40;;;;;;;4.60;2.90;;;;;;;16.17;68.41;98643.50;5071552;28;20104;-52
2021/09/13 01:03:06;;;;;;;5.65;2.88;;;;;;;16.16;68.12;98644.56;5071502;28;20035;-52
2021/09/13 01:05:31;;;;;;;5.65;3.03;;;;;;;16.21;67.95;98641.22;5055627;28;20020;-52
2021/09/13 01:07:57;;;;;;;5.68;2.95;;;;;;;16.50;68.13;98644.63;5075723;28;20028;-52
2021/09/13 01:10:24;;;;;;;3.47;2.20;;;;;;;17.11;66.63;98646.63;5057663;28;20629;-52
2021/09/13 01:12:49;;;;;;;6.05;2.42;;;;;;;17.40;65.20;98639.31;5075600;28;20035;-50
2021/09/13 01:15:15;;;;;;;6.25;2.90;;;;;;;17.40;64.47;98649.16;5075544;28;20024;-50
2021/09/13 01:17:41;;;;;;;6.10;1.70;;;;;;;17.51;64.29;98642.94;5075160;28;20047;-49
2021/09/13 01:20:08;;;;;;;4.80;2.33;;;;;;;17.45;64.04;98651.88;5075346;28;20039;-50
2021/09/13 01:22:34;;;;;;;4.70;3.20;;;;;;;17.28;64.30;98650.03;5075411;28;20469;-50
2021/09/13 01:25:00;;;;;;;5.75;2.75;;;;;;;17.44;64.28;98650.25;5074052;28;20028;-50
2021/09/13 01:27:26;;;;;;;4.47;2.83;;;;;;;17.47;63.83;98647.13;5057232;28;20029;-49
2021/09/13 01:29:52;;;;;;;5.40;2.63;;;;;;;17.41;63.53;98642.81;5075338;28;20052;-49
2021/09/13 01:32:18;;;;;;;7.13;3.25;;;;;;;17.22;64.01;98645.72;5073831;28;20056;-49
2021/09/13 01:34:44;;;;;;;6.15;2.97;;;;;;;17.00;64.40;98650.19;5073878;28;20115;-49
2021/09/13 01:37:10;;;;;;;3.60;2.53;;;;;;;16.89;65.09;98644.72;5075045;28;20619;-50
2021/09/13 01:39:35;;;;;;;3.03;2.65;;;;;;;16.90;64.80;98651.66;5057079;28;20025;-50
2021/09/13 01:42:01;;;;;;;9.55;3.13;;;;;;;16.89;64.76;98642.09;5056940;28;20170;-50
2021/09/13 01:44:27;;;;;;;3.75;2.92;;;;;;;16.89;64.76;98647.38;5074970;28;20498;-50
2021/09/13 01:46:53;;;;;;;3.58;2.55;;;;;;;16.97;64.73;98643.53;5056913;28;20032;-50
2021/09/13 01:49:19;;;;;;;4.82;2.60;;;;;;;16.83;64.62;98647.56;5074854;28;20457;-49
2021/09/13 01:51:45;;;;;;;4.35;2.78;;;;;;;16.53;65.13;98652.09;5074835;28;20042;-49
2021/09/13 01:54:11;;;;;;;4.47;2.50;;;;;;;16.28;66.39;98649.81;5074783;28;20021;-49
2021/09/13 01:56:36;;;;;;;3.78;2.88;;;;;;;16.14;67.21;98651.94;5074703;28;20033;-52
2021/09/13 01:59:02;;;;;;;7.90;4.18;;;;;;;16.01;68.11;98649.56;5056698;28;20026;-51
2021/09/13 02:01:28;;;;;;;5.50;2.80;;;;;;;15.87;68.84;98654.34;5056433;28;20031;-52
2021/09/13 02:03:54;;;;;;;3.78;2.88;;;;;;;15.76;69.39;98649.91;5074663;28;20100;-52
2021/09/13 02:06:20;;;;;;;6.57;3.35;;;;;;;15.65;69.65;98643.56;5074599;28;20028;-52
2021/09/13 02:08:46;;;;;;;4.07;2.60;;;;;;;15.57;69.74;98649.22;5074531;28;20020;-52
2021/09/13 02:11:12;;;;;;;4.63;2.42;;;;;;;15.51;69.86;98647.50;5056433;28;20025;-52
2021/09/13 02:13:38;;;;;;;5.40;3.13;;;;;;;15.51;69.77;98650.97;5074488;28;20440;-52
2021/09/13 02:16:05;;;;;;;15.30;3.90;;;;;;;15.51;69.79;98642.22;5074181;28;20419;-52
2021/09/13 02:18:30;;;;;;;4.13;2.47;;;;;;;15.51;69.58;98640.41;5052805;28;20415;-52
2021/09/13 02:20:56;;;;;;;3.13;2.50;;;;;;;15.54;69.66;98644.41;5054196;28;20021;-52
2021/09/13 02:23:22;;;;;;;3.42;2.63;;;;;;;15.56;69.45;98644.97;5036268;28;20027;-52
2021/09/13 02:25:47;;;;;;;6.30;2.95;;;;;;;15.63;69.10;98643.00;5036276;28;20025;-52
2021/09/13 02:28:13;;;;;;;6.60;2.67;;;;;;;15.78;68.83;98640.69;5054141;28;20028;-52
2021/09/13 02:30:38;;;;;;;6.45;3.28;;;;;;;15.88;68.45;98649.88;5054112;28;20037;-52
2021/09/13 02:33:07;;;;;;;9.25;3.22;;;;;;;16.01;68.16;98649.56;5053998;28;20046;-52
2021/09/13 02:35:34;;;;;;;3.78;2.70;;;;;;;16.18;67.62;98650.44;5054074;28;20191;-52
2021/09/13 02:37:59;;;;;;;5.15;2.80;;;;;;;16.32;66.94;98650.16;5054021;28;20106;-52
2021/09/13 02:40:25;;;;;;;3.33;2.60;;;;;;;16.38;66.85;98654.50;5053763;28;20049;-52
2021/09/13 02:42:51;;;;;;;4.47;2.80;;;;;;;16.46;66.67;98654.09;5035998;28;20568;-52
2021/09/13 02:45:17;;;;;;;7.55;2.50;;;;;;;16.32;66.68;98652.81;5035931;28;20143;-52
2021/09/13 02:47:43;;;;;;;9.15;5.68;;;;;;;16.03;67.72;98658.09;5053815;28;20096;-51
2021/09/13 02:50:10;;;;;;;5.07;3.97;;;;;;;15.78;68.79;98659.22;5053796;28;20064;-51
2021/09/13 02:52:36;;;;;;;4.38;2.97;;;;;;;15.68;68.80;98664.28;5053754;28;20029;-52
2021/09/13 02:55:04;;;;;;;3.28;2.80;;;;;;;15.57;69.15;98660.63;5053634;28;20148;-52
2021/09/13 02:57:30;;;;;;;9.45;3.80;;;;;;;15.51;69.55;98672.13;5035666;28;20508;-52
2021/09/13 02:59:55;;;;;;;5.68;2.90;;;;;;;15.47;69.56;98659.59;5035510;28;20086;-52
2021/09/13 03:02:21;;;;;;;6.20;2.97;;;;;;;15.54;69.37;98670.88;5053497;28;20070;-52
2021/09/13 03:04:46;;;;;;;5.90;2.72;;;;;;;15.60;68.97;98664.63;5035626;28;20090;-52
2021/09/13 03:07:15;;;;;;;3.28;2.42;;;;;;;15.75;68.87;98659.69;5053423;28;20390;-52
2021/09/13 03:09:41;;;;;;;4.20;2.75;;;;;;;15.93;68.26;98656.03;5035532;28;20502;-52
2021/09/13 03:12:07;;;;;;;5.10;2.85;;;;;;;15.88;68.20;98665.75;5035378;28;20206;-52
2021/09/13 03:14:33;;;;;;;6.68;2.80;;;;;;;15.83;68.31;98665.63;5053174;28;20029;-52
2021/09/13 03:16:59;;;;;;;6.93;3.00;;;;;;;15.73;68.50;98666.25;5055295;28;20028;-52
2021/09/13 03:19:25;;;;;;;4.25;3.05;;;;;;;15.73;68.66;98666.25;5073265;28;20036;-52
2021/09/13 03:21:51;;;;;;;4.53;2.63;;;;;;;15.77;68.51;98665.56;5073093;28;20039;-52
2021/09/13 03:24:17;;;;;;;6.18;2.97;;;;;;;15.88;68.42;98660.47;5073109;28;20127;-52
2021/09/13 03:26:43;;;;;;;4.93;2.80;;;;;;;15.82;68.36;98664.06;5073015;28;20505;-52
2021/09/13 03:29:08;;;;;;;6.70;2.60;;;;;;;15.74;68.43;98666.00;5072337;28;20051;-52
2021/09/13 03:31:34;;;;;;;4.88;2.90;;;;;;;15.65;68.81;98664.72;5072983;28;20104;-52
2021/09/13 03:34:00;;;;;;;4.10;2.90;;;;;;;15.51;69.21;98671.31;5072886;28;20036;-52
2021/09/13 03:36:25;;;;;;;6.65;3.38;;;;;;;15.41;69.61;98671.91;5054762;28;20048;-52
2021/09/13 03:38:51;;;;;;;12.48;4.45;;;;;;;15.30;69.92;98665.59;5054775;28;20031;-52
2021/09/13 03:41:17;;;;;;;12.07;4.80;;;;;;;15.29;70.52;98669.28;5072664;28;20027;-52
2021/09/13 03:43:43;;;;;;;9.20;3.70;;;;;;;15.28;70.42;98662.38;5072770;28;20036;-52
2021/09/13 03:46:08;;;;;;;8.20;3.58;;;;;;;15.35;70.35;98665.72;5072589;28;20398;-52
2021/09/13 03:48:34;;;;;;;6.70;3.20;;;;;;;15.42;69.92;98662.94;5054695;28;20119;-53
2021/09/13 03:50:59;;;;;;;4.90;3.03;;;;;;;15.45;69.67;98657.16;5072623;28;20024;-52
2021/09/13 03:53:25;;;;;;;8.82;4.03;;;;;;;15.43;69.83;98666.38;5072438;28;20085;-52
2021/09/13 03:55:51;;;;;;;12.70;4.03;;;;;;;15.34;69.91;98665.94;5072493;28;20028;-52
2021/09/13 03:58:20;;;;;;;5.22;3.22;;;;;;;15.30;70.40;98660.31;5071196;28;20021;-52
2021/09/13 04:00:45;;;;;;;8.73;3.38;;;;;;;15.29;70.73;98664.00;5054361;28;20044;-52
2021/09/13 04:03:18;;;;;;;7.13;3.03;;;;;;;15.31;70.46;98669.03;5054448;28;20051;-52
2021/09/13 04:05:47;;;;;;;5.47;3.17;;;;;;;15.25;71.08;98673.44;5072376;28;20024;-51
2021/09/13 04:12:02;;;;;;;15.07;4.57;;;;;;;15.20;71.00;98673.31;5072224;28;20029;-51
2021/09/13 04:13:55;;;;;;;7.15;3.38;;;;;;;15.23;70.92;98677.31;5062883;28;20052;-52
2021/09/13 04:16:20;;;;;;;6.75;3.33;;;;;;;15.25;71.11;98673.44;5054074;28;20017;-52
2021/09/13 04:18:46;;;;;;;4.68;2.90;;;;;;;15.28;70.72;98672.16;5071910;28;20127;-52
2021/09/13 04:21:13;;;;;;;10.43;3.20;;;;;;;15.30;70.96;98675.38;5071971;28;20111;-52
2021/09/13 04:23:38;;;;;;;5.32;3.40;;;;;;;15.28;70.87;98678.25;5072028;28;20035;-52
2021/09/13 04:26:04;;;;;;;6.50;3.40;;;;;;;15.33;71.15;98673.06;5070657;28;20020;-52
2021/09/13 04:28:29;;;;;;;10.45;3.58;;;;;;;15.39;70.69;98681.91;5071958;28;20024;-52
2021/09/13 04:30:55;;;;;;;7.07;3.47;;;;;;;15.43;70.65;98676.97;5053851;28;20401;-52
2021/09/13 04:33:21;;;;;;;8.27;3.47;;;;;;;15.60;70.29;98682.34;5071913;28;20021;-52
2021/09/13 04:35:47;;;;;;;4.68;3.30;;;;;;;15.68;69.83;98677.50;5070546;28;20505;-52
2021/09/13 04:38:13;;;;;;;4.13;2.80;;;;;;;15.75;69.61;98680.03;5070601;28;20028;-52
2021/09/13 04:40:39;;;;;;;3.35;2.97;;;;;;;15.88;69.24;98682.44;5070829;28;20031;-52
2021/09/13 04:43:04;;;;;;;4.82;2.95;;;;;;;16.01;68.70;98678.69;5071702;28;20032;-52
2021/09/13 04:45:30;;;;;;;9.38;2.90;;;;;;;16.05;68.31;98679.84;5071779;28;20024;-52
2021/09/13 04:47:56;;;;;;;6.20;2.97;;;;;;;15.97;68.29;98680.22;5053784;28;20059;-51
2021/09/13 04:50:22;;;;;;;5.82;4.40;;;;;;;15.90;68.52;98675.06;5071700;28;20134;-52
2021/09/13 04:52:47;;;;;;;7.35;4.85;;;;;;;16.03;68.51;98673.16;5053862;28;20405;-52
2021/09/13 04:55:13;;;;;;;8.50;4.03;;;;;;;16.16;67.90;98681.63;5053641;28;20043;-52
2021/09/13 04:57:38;;;;;;;9.38;3.60;;;;;;;16.21;67.92;98678.28;5071643;28;20593;-52
2021/09/13 05:00:04;;;;;;;10.25;4.28;;;;;;;16.43;67.63;98681.06;5071605;28;20050;-52
2021/09/13 05:02:30;;;;;;;12.10;3.50;;;;;;;16.58;66.90;98683.97;5071527;28;20031;-52
2021/09/13 05:04:56;;;;;;;9.00;3.00;;;;;;;16.84;66.49;98684.44;5071617;28;20099;-52
2021/09/13 05:07:22;;;;;;;6.65;2.83;;;;;;;16.84;65.73;98681.78;5053561;28;20478;-50
2021/09/13 05:09:48;;;;;;;6.93;3.10;;;;;;;16.55;65.98;98686.28;5071575;28;20016;-50
2021/09/13 05:12:13;;;;;;;7.47;3.42;;;;;;;16.27;66.74;98685.28;5071551;28;20108;-49
2021/09/13 05:14:39;;;;;;;4.45;3.10;;;;;;;16.00;67.37;98690.34;5071545;28;20025;-52
2021/09/13 05:17:05;;;;;;;10.75;5.70;;;;;;;15.83;68.09;98687.59;5069924;28;20036;-49
2021/09/13 05:19:31;;;;;;;4.65;3.78;;;;;;;15.67;68.79;98693.59;5053385;28;20036;-50
2021/09/13 05:21:57;;;;;;;5.13;3.05;;;;;;;15.57;69.09;98691.53;5071318;28;20406;-52
2021/09/13 05:24:23;;;;;;;8.18;3.60;;;;;;;15.53;69.40;98696.53;5071439;28;20055;-52
2021/09/13 05:26:49;;;;;;;10.15;4.03;;;;;;;15.57;69.37;98695.00;5071369;28;20028;-52
2021/09/13 05:29:14;;;;;;;10.80;3.05;;;;;;;15.62;69.46;98694.31;5053352;28;20035;-52
2021/09/13 05:31:40;;;;;;;8.27;3.70;;;;;;;15.88;68.90;98694.88;5071293;28;20395;-51
2021/09/13 05:34:06;;;;;;;5.47;3.97;;;;;;;16.25;68.02;98697.94;5053249;28;20116;-52
2021/09/13 05:36:32;;;;;;;7.60;3.90;;;;;;;16.57;67.19;98692.94;5071287;28;20113;-52
2021/09/13 05:39:01;;;;;;;4.85;3.45;;;;;;;16.92;65.87;98702.59;5071153;28;20025;-50
2021/09/13 05:41:27;;;;;;;6.05;3.30;;;;;;;17.24;65.10;98693.22;5071185;28;20021;-50
2021/09/13 05:43:52;;;;;;;5.85;3.10;;;;;;;17.53;64.10;98696.56;5071130;28;20052;-50
2021/09/13 05:46:18;;;;;;;5.05;3.05;;;;;;;17.91;62.63;98689.63;5071441;28;20028;-50
2021/09/13 05:48:44;;;;;;;6.03;4.15;;;;;;;18.26;61.66;98683.09;5071192;28;20032;-50
2021/09/13 05:51:10;;;;;;;7.15;3.70;;;;;;;18.45;60.43;98692.31;5072468;28;20456;-50
2021/09/13 05:53:35;;;;;;;6.90;3.40;;;;;;;18.28;60.70;98691.59;5074827;28;20523;-50
2021/09/13 05:56:02;;;;;;;5.07;3.20;;;;;;;17.99;61.67;98691.84;5074822;28;20390;-50
2021/09/13 05:58:28;;;;;;;18.98;5.00;;;;;;;17.87;62.75;98696.47;5074806;28;20024;-50
2021/09/13 06:00:54;;;;;;;7.72;3.72;;;;;;;17.90;62.33;98698.63;5056602;28;20089;-50
2021/09/13 06:03:20;;;;;;;20.20;4.65;;;;;;;18.20;63.05;98700.81;5056654;28;20103;-50
2021/09/13 06:05:49;;;;;;;22.23;5.22;;;;;;;19.24;60.43;98701.47;5074600;28;20044;-50
2021/09/13 06:08:14;;;;;;;10.75;4.18;;;;;;;19.96;58.08;98707.19;5074494;28;20028;-50
2021/09/13 06:10:40;;;;;;;19.13;12.85;;;;;;;20.84;56.02;98700.94;5073147;28;20514;-50
2021/09/13 06:13:11;;;;;;;24.17;14.68;;;;;;;21.12;53.95;98702.28;5074529;28;20070;-50
2021/09/13 06:15:39;;;;;;;94.63;85.65;;;;;;;21.00;54.65;98708.97;5074648;28;20016;-50
2021/09/13 06:18:05;;;;;;;48.72;37.75;;;;;;;21.06;55.17;98707.88;5074207;28;20127;-50
2021/09/13 06:20:30;;;;;;;12.48;8.70;;;;;;;21.10;54.98;98703.63;5074267;28;20558;-50
2021/09/13 06:22:56;;;;;;;4.97;3.53;;;;;;;21.12;54.28;98709.47;5074322;28;20033;-51
2021/09/13 06:25:25;;;;;;;14.35;4.28;;;;;;;20.87;54.28;98703.09;5074247;28;20052;-51
2021/09/13 06:27:51;;;;;;;8.48;3.60;;;;;;;20.33;55.10;98708.88;5074152;28;20036;-50
2021/09/13 06:30:17;;;;;;;16.63;4.32;;;;;;;19.93;56.61;98716.50;5074035;28;20071;-50
2021/09/13 06:32:43;;;;;;;9.55;4.20;;;;;;;20.69;56.09;98711.63;5074099;28;20024;-50
2021/09/13 06:35:10;;;;;;;16.77;5.13;;;;;;;21.31;56.46;98710.53;5056048;28;20402;-50
2021/09/13 06:37:36;;;;;;;38.00;6.95;;;;;;;22.18;56.52;98705.97;5074011;28;20551;-50
2021/09/13 06:40:02;;;;;;;12.20;4.68;;;;;;;23.44;51.23;98701.78;5073968;28;20020;-50
2021/09/13 06:42:30;;;;;;;21.02;4.65;;;;;;;24.54;47.63;98698.28;5073901;28;20028;-50
2021/09/13 06:45:08;;;;;;;23.00;4.85;;;;;;;25.64;44.83;98693.16;5073914;28;20094;-50
2021/09/13 06:47:44;;;;;;;37.95;11.77;;;;;;;26.39;43.06;98698.31;5073985;28;20178;-51
2021/09/13 06:50:19;;;;;;;14.15;4.32;;;;;;;27.00;41.22;98696.06;5074125;28;20031;-50
2021/09/13 06:52:47;;;;;;;33.70;8.90;;;;;;;27.62;39.83;98695.25;5072457;28;20040;-51
2021/09/13 06:55:14;;;;;;;11.00;4.70;;;;;;;27.91;38.83;98697.44;5073909;28;20028;-51
2021/09/13 06:57:39;;;;;;;21.65;6.05;;;;;;;28.19;38.27;98697.13;5055917;28;20571;-51
2021/09/13 07:00:13;;;;;;;17.58;4.55;;;;;;;28.41;37.84;98688.06;5073641;28;20056;-51
2021/09/13 07:02:41;;;;;;;9.98;4.15;;;;;;;28.49;37.74;98695.38;5054522;28;20521;-51
2021/09/13 07:05:09;;;;;;;16.48;3.95;;;;;;;28.68;37.16;98697.78;5073818;28;20021;-51
2021/09/13 07:07:36;;;;;;;19.55;5.40;;;;;;;28.93;37.19;98692.66;5073732;28;20029;-51
2021/09/13 07:10:04;;;;;;;9.02;3.33;;;;;;;29.67;35.69;98683.31;5073443;28;20437;-51
2021/09/13 07:12:29;;;;;;;10.20;3.60;;;;;;;29.75;35.57;98689.81;5055309;28;20028;-51
2021/09/13 07:14:55;;;;;;;8.55;3.38;;;;;;;29.99;34.89;98687.28;5073253;28;20020;-51
2021/09/13 07:17:21;;;;;;;11.52;3.20;;;;;;;30.27;34.03;98684.03;5073038;28;20044;-51
2021/09/13 07:19:47;;;;;;;11.05;3.42;;;;;;;30.00;34.12;98697.00;5073252;28;20494;-51
2021/09/13 07:22:13;;;;;;;11.07;4.43;;;;;;;30.04;34.33;98700.63;5073014;28;20397;-51
2021/09/13 07:24:43;;;;;;;7.57;3.42;;;;;;;30.53;34.17;98685.78;5073009;28;20016;-51
2021/09/13 07:27:09;;;;;;;16.30;4.35;;;;;;;31.34;33.03;98694.31;5073073;28;20392;-51
2021/09/13 07:29:34;;;;;;;8.45;2.95;;;;;;;31.63;32.18;98687.91;5072911;28;20043;-51
2021/09/13 07:32:02;;;;;;;13.75;3.15;;;;;;;31.84;32.12;98691.28;5072954;28;20028;-51
2021/09/13 07:34:28;;;;;;;12.13;3.83;;;;;;;32.10;31.67;98694.78;5073157;28;20382;-51
2021/09/13 07:36:55;;;;;;;23.88;5.00;;;;;;;32.35;31.41;98696.25;5072843;28;20028;-51
2021/09/13 07:39:27;;;;;;;19.13;4.40;;;;;;;32.86;30.50;98689.47;5072845;28;20017;-51
2021/09/13 07:41:53;;;;;;;24.85;4.30;;;;;;;33.47;29.88;98693.75;5072832;28;20055;-49
2021/09/13 07:44:20;;;;;;;20.30;3.25;;;;;;;33.64;29.87;98696.09;5072799;28;20100;-48
2021/09/13 07:46:45;;;;;;;14.90;3.00;;;;;;;33.86;29.35;98694.66;5072656;28;20068;-49
2021/09/13 07:49:12;;;;;;;17.20;3.70;;;;;;;34.37;28.67;98696.50;5054662;28;20448;-48
2021/09/13 07:51:38;;;;;;;16.20;3.08;;;;;;;34.74;28.25;98696.88;5072601;28;20033;-48
2021/09/13 07:54:06;;;;;;;22.98;3.88;;;;;;;34.93;28.09;98696.03;5072556;28;20051;-49
2021/09/13 07:56:35;;;;;;;11.18;3.47;;;;;;;35.08;27.97;98705.25;5072534;28;20021;-49
2021/09/13 07:59:03;;;;;;;10.82;2.70;;;;;;;34.98;28.14;98706.63;5072740;28;20486;-49
2021/09/13 08:01:30;;;;;;;9.40;2.88;;;;;;;35.16;27.93;98695.28;5072370;28;20436;-48
2021/09/13 08:03:57;;;;;;;13.45;3.30;;;;;;;35.47;27.40;98696.16;5072363;28;20498;-49
2021/09/13 08:06:23;;;;;;;8.82;2.67;;;;;;;35.62;27.16;98700.69;5072595;28;20402;-51
2021/09/13 08:08:49;;;;;;;8.93;2.40;;;;;;;35.91;26.54;98693.69;5072287;28;20017;-51
2021/09/13 08:11:15;;;;;;;10.75;2.70;;;;;;;36.31;26.39;98692.25;5072221;28;20040;-51
2021/09/13 08:13:41;;;;;;;17.08;3.25;;;;;;;36.46;26.14;98695.16;5072048;28;20506;-52
2021/09/13 08:16:07;;;;;;;17.70;2.90;;;;;;;36.43;25.93;98693.97;5072156;28;20017;-51
2021/09/13 08:18:33;;;;;;;10.38;3.40;;;;;;;35.92;26.15;98694.47;5053794;28;20571;-51
2021/09/13 08:20:59;;;;;;;8.35;2.95;;;;;;;35.72;26.70;98704.75;5072009;28;20150;-51
2021/09/13 08:23:25;;;;;;;15.40;3.90;;;;;;;35.95;26.83;98699.97;5072097;28;20101;-51
2021/09/13 08:25:50;;;;;;;13.38;4.60;;;;;;;36.64;25.94;98700.84;5071990;28;20021;-51
2021/09/13 08:28:23;;;;;;;11.77;3.25;;;;;;;37.32;25.09;98702.28;5071968;28;20371;-51
2021/09/13 08:30:49;;;;;;;11.13;2.92;;;;;;;37.71;24.91;98701.00;5071999;28;20379;-51
2021/09/13 08:33:16;;;;;;;9.85;2.92;;;;;;;37.87;24.69;98706.19;5071920;28;20494;-51
2021/09/13 08:35:42;;;;;;;20.27;5.50;;;;;;;37.37;24.58;98698.41;5071947;28;20028;-50
2021/09/13 08:38:08;;;;;;;23.98;4.85;;;;;;;37.38;24.89;98700.75;5053856;28;20058;-51
2021/09/13 08:40:34;;;;;;;24.48;5.38;;;;;;;37.76;24.64;98706.13;5053804;28;20075;-51
2021/09/13 08:43:06;;;;;;;9.60;2.80;;;;;;;37.82;23.12;98701.84;5071925;28;20025;-50
2021/09/13 08:53:19;;;;;;;19.17;4.82;;;;;;;39.12;22.41;98701.13;5071742;28;20118;-51
2021/09/13 08:55:45;;;;;;;7.20;3.13;;;;;;;38.84;21.91;98693.63;5071738;28;20017;-52
2021/09/13 08:58:21;;;;;;;9.70;3.63;;;;;;;38.23;23.17;98690.72;5071681;28;20493;-51
2021/09/13 09:00:48;;;;;;;8.57;3.00;;;;;;;38.27;22.79;98688.75;5071612;28;20446;-52
2021/09/13 09:03:15;;;;;;;10.02;2.80;;;;;;;38.60;23.22;98688.88;5053874;28;20031;-51
2021/09/13 09:05:44;;;;;;;9.82;2.42;;;;;;;38.85;22.29;98688.94;5071616;28;20104;-51
2021/09/13 09:08:12;;;;;;;8.63;3.65;;;;;;;39.11;22.09;98680.34;5071604;28;20031;-51
2021/09/13 09:10:51;;;;;;;16.58;3.65;;;;;;;39.35;22.54;98678.75;5071473;28;20020;-51
2021/09/13 09:13:17;;;;;;;4.97;2.65;;;;;;;39.54;21.58;98680.34;5071633;28;20036;-51
2021/09/13 09:15:57;;;;;;;4.65;2.40;;;;;;;39.00;21.90;98687.81;5053481;28;20039;-51
2021/09/13 09:18:25;;;;;;;5.38;2.15;;;;;;;38.46;23.10;98681.41;5071175;28;20040;-51
2021/09/13 09:20:51;;;;;;;14.55;3.00;;;;;;;38.28;23.09;98682.13;5071211;28;20029;-52
2021/09/13 09:23:17;;;;;;;8.38;2.35;;;;;;;38.13;22.66;98683.22;5070166;28;20066;-51
2021/09/13 09:25:43;;;;;;;7.40;2.53;;;;;;;37.24;23.87;98684.22;5053985;28;20041;-51
2021/09/13 09:28:19;;;;;;;5.75;2.17;;;;;;;37.22;23.49;98685.78;5075619;28;20375;-51
2021/09/13 09:30:47;;;;;;;6.00;2.67;;;;;;;37.14;23.72;98680.22;5075376;28;20028;-51
2021/09/13 09:33:19;;;;;;;8.55;2.50;;;;;;;37.16;23.71;98680.66;5075303;28;20016;-51
2021/09/13 09:35:56;;;;;;;7.03;3.20;;;;;;;38.10;22.78;98686.75;5075256;28;20119;-51
2021/09/13 09:38:37;;;;;;;4.43;2.40;;;;;;;38.91;21.64;98682.66;5075229;28;20146;-52
2021/09/13 09:41:10;;;;;;;18.70;3.75;;;;;;;39.68;21.03;98676.78;5057187;28;20053;-52
2021/09/13 09:44:00;;;;;;;8.85;3.45;;;;;;;40.41;21.10;98675.34;5057120;28;20108;-52
2021/09/13 09:46:38;;;;;;;9.90;2.67;;;;;;;40.85;20.53;98673.91;5074917;28;20056;-51
2021/09/13 09:49:11;;;;;;;7.63;2.47;;;;;;;41.04;20.34;98677.28;5074927;28;20498;-52
2021/09/13 09:51:39;;;;;;;5.25;2.38;;;;;;;41.64;18.96;98672.44;5074856;28;20041;-51
2021/09/13 09:54:20;;;;;;;10.55;3.55;;;;;;;42.00;19.25;98663.72;5056888;28;20123;-51
2021/09/13 09:57:02;;;;;;;7.68;2.85;;;;;;;42.30;19.10;98666.53;5074746;28;20024;-52
2021/09/13 09:59:46;;;;;;;10.80;2.63;;;;;;;42.52;18.21;98673.72;5074837;28;20254;-52
2021/09/13 10:02:14;;;;;;;8.32;2.55;;;;;;;42.43;18.71;98661.22;5074680;28;20040;-52
2021/09/13 10:04:40;;;;;;;4.38;1.73;;;;;;;42.72;17.39;98662.78;5074532;28;20073;-52
2021/09/13 10:07:07;;;;;;;4.85;1.88;;;;;;;42.69;16.79;98667.94;5074623;28;20051;-52
2021/09/13 10:09:33;;;;;;;3.47;1.80;;;;;;;42.14;16.94;98660.84;5056600;28;20514;-52
2021/09/13 10:12:02;;;;;;;6.07;1.90;;;;;;;41.96;17.62;98661.03;5074534;28;20025;-52
2021/09/13 10:14:29;;;;;;;4.30;1.42;;;;;;;42.00;17.37;98655.47;5074518;28;20023;-52
2021/09/13 10:16:56;;;;;;;2.40;1.98;;;;;;;42.20;17.47;98650.09;5056055;28;20115;-52
2021/09/13 10:19:24;;;;;;;26.83;24.77;;;;;;;42.22;17.79;98648.53;5056480;28;20063;-53
2021/09/13 10:21:51;;;;;;;6.28;4.35;;;;;;;42.20;17.57;98642.63;5074274;28;20060;-52
2021/09/13 10:24:18;;;;;;;6.03;2.30;;;;;;;42.02;16.82;98645.63;5074341;28;20124;-52
2021/09/13 10:26:59;;;;;;;2.97;1.40;;;;;;;41.75;17.04;98636.50;5056263;28;20064;-51
2021/09/13 10:29:28;;;;;;;5.63;1.60;;;;;;;41.69;16.65;98628.66;5056336;28;20456;-52
2021/09/13 10:31:55;;;;;;;3.58;1.80;;;;;;;40.83;17.71;98625.94;5074071;28;20032;-52
2021/09/13 10:34:22;;;;;;;6.95;4.88;;;;;;;40.45;18.24;98612.84;5074163;28;20551;-51
2021/09/13 10:37:18;;;;;;;11.75;4.30;;;;;;;40.43;18.97;98623.47;5056024;28;20025;-51
2021/09/13 10:40:05;;;;;;;2.38;1.73;;;;;;;39.98;18.59;98608.75;5074141;28;20032;-51
2021/09/13 10:42:41;;;;;;;2.75;1.70;;;;;;;39.83;18.73;98610.78;5073905;28;20478;-51
2021/09/13 10:45:12;;;;;;;2.03;1.58;;;;;;;39.28;18.65;98609.31;5074021;28;20032;-51
2021/09/13 10:48:01;;;;;;;6.32;1.92;;;;;;;38.59;19.66;98605.81;5073957;28;20032;-51
2021/09/13 10:50:49;;;;;;;3.78;2.03;;;;;;;38.33;18.92;98607.69;5073570;28;20029;-51
2021/09/13 10:53:18;;;;;;;6.60;1.60;;;;;;;37.77;19.51;98609.88;5055894;28;20479;-51
2021/09/13 10:55:46;;;;;;;4.95;1.73;;;;;;;37.36;20.50;98598.28;5073734;28;20063;-52
2021/09/13 10:58:16;;;;;;;4.18;1.63;;;;;;;37.25;20.31;98589.22;5055639;28;20024;-51
2021/09/13 11:00:44;;;;;;;3.58;2.00;;;;;;;37.05;20.16;98594.94;5073857;28;20025;-51
2021/09/13 11:03:22;;;;;;;3.75;1.80;;;;;;;36.80;20.81;98583.78;5073611;28;20021;-51
2021/09/13 11:06:16;;;;;;;4.65;1.63;;;;;;;36.89;21.11;98584.25;5073538;28;20024;-52
2021/09/13 11:08:59;;;;;;;2.90;1.88;;;;;;;37.22;20.51;98571.59;5073582;28;20518;-52
2021/09/13 11:11:32;;;;;;;3.00;2.00;;;;;;;37.30;20.60;98569.69;5073446;28;20502;-51
2021/09/13 11:14:00;;;;;;;5.15;1.83;;;;;;;37.43;20.42;98570.94;5073397;28;20024;-50
2021/09/13 11:16:31;;;;;;;3.58;1.98;;;;;;;37.19;20.35;98566.91;5073324;28;20103;-51
2021/09/13 11:18:59;;;;;;;4.97;1.90;;;;;;;36.70;21.00;98568.09;5073056;28;20076;-52
2021/09/13 11:21:31;;;;;;;102.95;92.47;;;;;;;36.38;21.44;98574.81;5055163;28;20032;-52
2021/09/13 11:24:02;;;;;;;92.00;83.00;;;;;;;36.26;21.64;98564.16;5071893;28;20024;-52
2021/09/13 11:26:49;;;;;;;13.38;11.63;;;;;;;35.88;21.78;98568.81;5073200;28;20060;-52
2021/09/13 11:29:19;;;;;;;6.22;3.88;;;;;;;35.60;22.92;98556.34;5073121;28;20051;-52
2021/09/13 11:32:05;;;;;;;4.65;2.35;;;;;;;35.64;22.70;98561.03;5055015;28;20032;-51
2021/09/13 11:34:32;;;;;;;2.92;2.30;;;;;;;35.57;22.40;98553.56;5073034;28;20024;-51
2021/09/13 11:37:19;;;;;;;5.00;2.38;;;;;;;35.67;22.53;98552.94;5072828;28;20031;-52
2021/09/13 11:39:53;;;;;;;4.32;1.88;;;;;;;35.79;22.73;98552.69;5072832;28;20105;-52
2021/09/13 11:42:22;;;;;;;3.05;2.05;;;;;;;36.12;22.58;98551.13;5072760;28;20024;-52
2021/09/13 11:44:48;;;;;;;3.30;1.77;;;;;;;36.53;22.37;98553.09;5072753;28;20383;-51
2021/09/13 11:47:20;;;;;;;2.83;1.40;;;;;;;36.63;22.28;98552.41;5054760;28;20044;-51